sensor_id;sensor_type;location;lat;lon;timestamp;temperature;humidity
2389;DHT22;1205;47.984;7.668;2024-02-23T00:00:01;8.10;99.90
2389;DHT22;1205;47.984;7.668;2024-02-23T00:02:31;8.10;99.90
2389;DHT22;1205;47.984;7.668;2024-02-23T00:04:56;8.20;99.90
2389;DHT22;1205;47.984;7.668;2024-02-23T00:07:22;8.20;99.90
2389;DHT22;1205;47.984;7.668;2024-02-23T00:09:47;8.20;99.90
2389;DHT22;1205;47.984;7.668;2024-02-23T00:12:13;8.20;99.90
2389;DHT22;1205;47.984;7.668;2024-02-23T00:14:39;8.20;99.90
2389;DHT22;1205;47.984;7.668;2024-02-23T00:17:05;8.30;99.90
2389;DHT22;1205;47.984;7.668;2024-02-23T00:19:31;8.20;99.90
2389;DHT22;1205;47.984;7.668;2024-02-23T00:21:57;8.10;99.90
2389;DHT22;1205;47.984;7.668;2024-02-23T00:24:27;8.10;99.90
2389;DHT22;1205;47.984;7.668;2024-02-23T00:26:53;8.10;99.90
2389;DHT22;1205;47.984;7.668;2024-02-23T00:29:18;8.00;99.90
2389;DHT22;1205;47.984;7.668;2024-02-23T00:31:44;8.10;99.90
2389;DHT22;1205;47.984;7.668;2024-02-23T00:34:13;8.10;99.90
2389;DHT22;1205;47.984;7.668;2024-02-23T00:36:40;8.10;99.90
2389;DHT22;1205;47.984;7.668;2024-02-23T00:39:07;8.00;99.90
2389;DHT22;1205;47.984;7.668;2024-02-23T00:41:33;8.00;99.90
2389;DHT22;1205;47.984;7.668;2024-02-23T00:43:59;8.00;99.90
2389;DHT22;1205;47.984;7.668;2024-02-23T00:46:25;8.10;99.90
2389;DHT22;1205;47.984;7.668;2024-02-23T00:48:50;8.10;99.90
2389;DHT22;1205;47.984;7.668;2024-02-23T00:51:16;8.00;99.90
2389;DHT22;1205;47.984;7.668;2024-02-23T00:53:41;8.10;99.90
2389;DHT22;1205;47.984;7.668;2024-02-23T00:56:07;7.90;99.90
2389;DHT22;1205;47.984;7.668;2024-02-23T00:58:33;7.90;99.90
2389;DHT22;1205;47.984;7.668;2024-02-23T01:00:59;7.80;99.90
2389;DHT22;1205;47.984;7.668;2024-02-23T01:03:25;7.70;99.90
2389;DHT22;1205;47.984;7.668;2024-02-23T01:05:50;7.60;99.90
2389;DHT22;1205;47.984;7.668;2024-02-23T01:08:16;7.60;99.90
2389;DHT22;1205;47.984;7.668;2024-02-23T01:10:42;7.60;99.90
2389;DHT22;1205;47.984;7.668;2024-02-23T01:13:07;7.50;99.90
2389;DHT22;1205;47.984;7.668;2024-02-23T01:15:33;7.50;99.90
2389;DHT22;1205;47.984;7.668;2024-02-23T01:17:59;7.50;99.90
2389;DHT22;1205;47.984;7.668;2024-02-23T01:20:25;7.40;99.90
2389;DHT22;1205;47.984;7.668;2024-02-23T01:22:50;7.40;99.90
2389;DHT22;1205;47.984;7.668;2024-02-23T01:25:16;7.40;99.90
2389;DHT22;1205;47.984;7.668;2024-02-23T01:27:42;7.30;99.90
2389;DHT22;1205;47.984;7.668;2024-02-23T01:30:10;7.30;99.90
2389;DHT22;1205;47.984;7.668;2024-02-23T01:32:35;7.30;99.90
2389;DHT22;1205;47.984;7.668;2024-02-23T01:35:04;7.30;99.90
2389;DHT22;1205;47.984;7.668;2024-02-23T01:37:30;7.30;99.90
2389;DHT22;1205;47.984;7.668;2024-02-23T01:39:55;7.30;99.90
2389;DHT22;1205;47.984;7.668;2024-02-23T01:42:21;7.30;99.90
2389;DHT22;1205;47.984;7.668;2024-02-23T01:44:47;7.30;99.90
2389;DHT22;1205;47.984;7.668;2024-02-23T01:47:12;7.30;99.90
2389;DHT22;1205;47.984;7.668;2024-02-23T01:49:38;7.30;99.90
2389;DHT22;1205;47.984;7.668;2024-02-23T01:52:04;7.30;99.90
2389;DHT22;1205;47.984;7.668;2024-02-23T01:54:31;7.30;99.90
2389;DHT22;1205;47.984;7.668;2024-02-23T01:56:57;7.30;99.90
2389;DHT22;1205;47.984;7.668;2024-02-23T01:59:26;7.30;99.90
2389;DHT22;1205;47.984;7.668;2024-02-23T02:01:52;7.20;99.90
2389;DHT22;1205;47.984;7.668;2024-02-23T02:04:18;7.20;99.90
2389;DHT22;1205;47.984;7.668;2024-02-23T02:06:45;7.20;99.90
2389;DHT22;1205;47.984;7.668;2024-02-23T02:09:11;7.20;99.90
2389;DHT22;1205;47.984;7.668;2024-02-23T02:11:45;7.10;99.90
2389;DHT22;1205;47.984;7.668;2024-02-23T02:14:11;7.10;99.90
2389;DHT22;1205;47.984;7.668;2024-02-23T02:16:37;7.10;99.90
2389;DHT22;1205;47.984;7.668;2024-02-23T02:19:02;7.10;99.90
2389;DHT22;1205;47.984;7.668;2024-02-23T02:21:28;7.00;99.90
2389;DHT22;1205;47.984;7.668;2024-02-23T02:23:53;7.00;99.90
2389;DHT22;1205;47.984;7.668;2024-02-23T02:26:19;6.90;99.90
2389;DHT22;1205;47.984;7.668;2024-02-23T02:28:45;6.90;99.90
2389;DHT22;1205;47.984;7.668;2024-02-23T02:31:11;6.80;99.90
2389;DHT22;1205;47.984;7.668;2024-02-23T02:33:37;6.80;99.90
2389;DHT22;1205;47.984;7.668;2024-02-23T02:36:03;6.70;99.90
2389;DHT22;1205;47.984;7.668;2024-02-23T02:38:28;6.70;99.90
2389;DHT22;1205;47.984;7.668;2024-02-23T02:40:54;6.80;99.90
2389;DHT22;1205;47.984;7.668;2024-02-23T02:43:20;6.80;99.90
2389;DHT22;1205;47.984;7.668;2024-02-23T02:45:45;6.70;99.90
2389;DHT22;1205;47.984;7.668;2024-02-23T02:48:11;6.70;99.90
2389;DHT22;1205;47.984;7.668;2024-02-23T02:50:37;6.70;99.90
2389;DHT22;1205;47.984;7.668;2024-02-23T02:53:03;6.70;99.90
2389;DHT22;1205;47.984;7.668;2024-02-23T02:55:28;6.70;99.90
2389;DHT22;1205;47.984;7.668;2024-02-23T02:57:54;6.60;99.90
2389;DHT22;1205;47.984;7.668;2024-02-23T03:00:19;6.70;99.90
2389;DHT22;1205;47.984;7.668;2024-02-23T03:02:45;6.70;99.90
2389;DHT22;1205;47.984;7.668;2024-02-23T03:05:10;6.60;99.90
2389;DHT22;1205;47.984;7.668;2024-02-23T03:07:36;6.70;99.90
2389;DHT22;1205;47.984;7.668;2024-02-23T03:10:02;6.60;99.90
2389;DHT22;1205;47.984;7.668;2024-02-23T03:12:27;6.60;99.90
2389;DHT22;1205;47.984;7.668;2024-02-23T03:14:53;6.50;99.90
2389;DHT22;1205;47.984;7.668;2024-02-23T03:17:18;6.50;99.90
2389;DHT22;1205;47.984;7.668;2024-02-23T03:19:44;6.50;99.90
2389;DHT22;1205;47.984;7.668;2024-02-23T03:22:10;6.40;99.90
2389;DHT22;1205;47.984;7.668;2024-02-23T03:24:35;6.40;99.90
2389;DHT22;1205;47.984;7.668;2024-02-23T03:27:01;6.40;99.90
2389;DHT22;1205;47.984;7.668;2024-02-23T03:29:26;6.30;99.90
2389;DHT22;1205;47.984;7.668;2024-02-23T03:31:56;6.30;99.90
2389;DHT22;1205;47.984;7.668;2024-02-23T03:34:21;6.40;99.90
2389;DHT22;1205;47.984;7.668;2024-02-23T03:36:47;6.40;99.90
2389;DHT22;1205;47.984;7.668;2024-02-23T03:39:13;6.40;99.90
2389;DHT22;1205;47.984;7.668;2024-02-23T03:41:39;6.40;99.90
2389;DHT22;1205;47.984;7.668;2024-02-23T03:44:04;6.40;99.90
2389;DHT22;1205;47.984;7.668;2024-02-23T03:46:30;6.50;99.90
2389;DHT22;1205;47.984;7.668;2024-02-23T03:48:56;6.50;99.90
2389;DHT22;1205;47.984;7.668;2024-02-23T03:51:22;6.50;99.90
2389;DHT22;1205;47.984;7.668;2024-02-23T03:53:47;6.40;99.90
2389;DHT22;1205;47.984;7.668;2024-02-23T03:56:13;6.50;99.90
2389;DHT22;1205;47.984;7.668;2024-02-23T03:58:38;6.40;99.90
2389;DHT22;1205;47.984;7.668;2024-02-23T04:01:04;6.40;99.90
2389;DHT22;1205;47.984;7.668;2024-02-23T04:03:29;6.40;99.90
2389;DHT22;1205;47.984;7.668;2024-02-23T04:05:55;6.30;99.90
2389;DHT22;1205;47.984;7.668;2024-02-23T04:08:21;6.30;99.90
2389;DHT22;1205;47.984;7.668;2024-02-23T04:10:46;6.30;99.90
2389;DHT22;1205;47.984;7.668;2024-02-23T04:13:12;6.20;99.90
2389;DHT22;1205;47.984;7.668;2024-02-23T04:15:43;6.20;99.90
2389;DHT22;1205;47.984;7.668;2024-02-23T04:18:08;6.10;99.90
2389;DHT22;1205;47.984;7.668;2024-02-23T04:20:34;6.10;99.90
2389;DHT22;1205;47.984;7.668;2024-02-23T04:22:59;6.10;99.90
2389;DHT22;1205;47.984;7.668;2024-02-23T04:25:25;6.10;99.90
2389;DHT22;1205;47.984;7.668;2024-02-23T04:27:51;6.00;99.90
2389;DHT22;1205;47.984;7.668;2024-02-23T04:30:17;6.10;99.90
2389;DHT22;1205;47.984;7.668;2024-02-23T04:32:42;6.00;99.90
2389;DHT22;1205;47.984;7.668;2024-02-23T04:35:09;6.00;99.90
2389;DHT22;1205;47.984;7.668;2024-02-23T04:37:35;6.00;99.90
2389;DHT22;1205;47.984;7.668;2024-02-23T04:40:00;5.90;99.90
2389;DHT22;1205;47.984;7.668;2024-02-23T04:42:26;6.00;99.90
2389;DHT22;1205;47.984;7.668;2024-02-23T04:44:53;6.00;99.90
2389;DHT22;1205;47.984;7.668;2024-02-23T04:47:20;5.90;99.90
2389;DHT22;1205;47.984;7.668;2024-02-23T04:49:46;5.90;99.90
2389;DHT22;1205;47.984;7.668;2024-02-23T04:52:11;5.90;99.90
2389;DHT22;1205;47.984;7.668;2024-02-23T04:54:37;5.90;99.90
2389;DHT22;1205;47.984;7.668;2024-02-23T04:57:02;5.90;99.90
2389;DHT22;1205;47.984;7.668;2024-02-23T04:59:28;5.80;99.90
2389;DHT22;1205;47.984;7.668;2024-02-23T05:01:55;5.80;99.90
2389;DHT22;1205;47.984;7.668;2024-02-23T05:04:21;5.70;99.90
2389;DHT22;1205;47.984;7.668;2024-02-23T05:06:46;5.70;99.90
2389;DHT22;1205;47.984;7.668;2024-02-23T05:09:12;5.70;99.90
2389;DHT22;1205;47.984;7.668;2024-02-23T05:11:37;5.60;99.90
2389;DHT22;1205;47.984;7.668;2024-02-23T05:14:03;5.60;99.90
2389;DHT22;1205;47.984;7.668;2024-02-23T05:16:28;5.60;99.90
2389;DHT22;1205;47.984;7.668;2024-02-23T05:18:54;5.60;99.90
2389;DHT22;1205;47.984;7.668;2024-02-23T05:21:19;5.60;99.90
2389;DHT22;1205;47.984;7.668;2024-02-23T05:23:45;5.60;99.90
2389;DHT22;1205;47.984;7.668;2024-02-23T05:26:12;5.50;99.90
2389;DHT22;1205;47.984;7.668;2024-02-23T05:28:37;5.50;99.90
2389;DHT22;1205;47.984;7.668;2024-02-23T05:31:03;5.50;99.90
2389;DHT22;1205;47.984;7.668;2024-02-23T05:33:30;5.50;99.90
2389;DHT22;1205;47.984;7.668;2024-02-23T05:35:55;5.50;99.90
2389;DHT22;1205;47.984;7.668;2024-02-23T05:38:21;5.50;99.90
2389;DHT22;1205;47.984;7.668;2024-02-23T05:40:46;5.50;99.90
2389;DHT22;1205;47.984;7.668;2024-02-23T05:43:13;5.50;99.90
2389;DHT22;1205;47.984;7.668;2024-02-23T05:45:39;5.50;99.90
2389;DHT22;1205;47.984;7.668;2024-02-23T05:48:05;5.50;99.90
2389;DHT22;1205;47.984;7.668;2024-02-23T05:50:30;5.50;99.90
2389;DHT22;1205;47.984;7.668;2024-02-23T05:52:57;5.50;99.90
2389;DHT22;1205;47.984;7.668;2024-02-23T05:55:23;5.40;99.90
2389;DHT22;1205;47.984;7.668;2024-02-23T05:57:49;5.40;99.90
2389;DHT22;1205;47.984;7.668;2024-02-23T06:00:16;5.40;99.90
2389;DHT22;1205;47.984;7.668;2024-02-23T06:02:44;5.40;99.90
2389;DHT22;1205;47.984;7.668;2024-02-23T06:05:11;5.40;99.90
2389;DHT22;1205;47.984;7.668;2024-02-23T06:07:37;5.40;99.90
2389;DHT22;1205;47.984;7.668;2024-02-23T06:10:03;5.30;99.90
2389;DHT22;1205;47.984;7.668;2024-02-23T06:12:28;5.40;99.90
2389;DHT22;1205;47.984;7.668;2024-02-23T06:14:54;5.40;99.90
2389;DHT22;1205;47.984;7.668;2024-02-23T06:17:22;5.40;99.90
2389;DHT22;1205;47.984;7.668;2024-02-23T06:19:48;5.40;99.90
2389;DHT22;1205;47.984;7.668;2024-02-23T06:22:14;5.40;99.90
2389;DHT22;1205;47.984;7.668;2024-02-23T06:24:42;5.40;99.90
2389;DHT22;1205;47.984;7.668;2024-02-23T06:27:08;5.40;99.90
2389;DHT22;1205;47.984;7.668;2024-02-23T06:29:33;5.30;99.90
2389;DHT22;1205;47.984;7.668;2024-02-23T06:31:59;5.40;99.90
2389;DHT22;1205;47.984;7.668;2024-02-23T06:34:26;5.40;99.90
2389;DHT22;1205;47.984;7.668;2024-02-23T06:36:52;5.40;99.90
2389;DHT22;1205;47.984;7.668;2024-02-23T06:39:18;5.40;99.90
2389;DHT22;1205;47.984;7.668;2024-02-23T06:41:43;5.40;99.90
2389;DHT22;1205;47.984;7.668;2024-02-23T06:44:09;5.50;99.90
2389;DHT22;1205;47.984;7.668;2024-02-23T06:46:34;5.40;99.90
2389;DHT22;1205;47.984;7.668;2024-02-23T06:49:00;5.50;99.90
2389;DHT22;1205;47.984;7.668;2024-02-23T06:51:26;5.50;99.90
2389;DHT22;1205;47.984;7.668;2024-02-23T06:53:52;5.50;99.90
2389;DHT22;1205;47.984;7.668;2024-02-23T06:56:18;5.60;99.90
2389;DHT22;1205;47.984;7.668;2024-02-23T06:58:44;5.50;99.90
2389;DHT22;1205;47.984;7.668;2024-02-23T07:01:09;5.60;99.90
2389;DHT22;1205;47.984;7.668;2024-02-23T07:03:38;5.70;99.90
2389;DHT22;1205;47.984;7.668;2024-02-23T07:06:04;5.70;99.90
2389;DHT22;1205;47.984;7.668;2024-02-23T07:08:30;5.80;99.90
2389;DHT22;1205;47.984;7.668;2024-02-23T07:10:56;5.80;99.90
2389;DHT22;1205;47.984;7.668;2024-02-23T07:13:21;5.90;99.90
2389;DHT22;1205;47.984;7.668;2024-02-23T07:15:47;6.00;99.90
2389;DHT22;1205;47.984;7.668;2024-02-23T07:18:12;6.20;99.90
2389;DHT22;1205;47.984;7.668;2024-02-23T07:20:38;6.20;99.90
2389;DHT22;1205;47.984;7.668;2024-02-23T07:23:04;6.30;99.90
2389;DHT22;1205;47.984;7.668;2024-02-23T07:25:30;6.30;99.90
2389;DHT22;1205;47.984;7.668;2024-02-23T07:27:56;6.40;99.90
2389;DHT22;1205;47.984;7.668;2024-02-23T07:30:22;6.50;99.90
2389;DHT22;1205;47.984;7.668;2024-02-23T07:32:48;6.50;99.90
2389;DHT22;1205;47.984;7.668;2024-02-23T07:35:13;6.60;99.90
2389;DHT22;1205;47.984;7.668;2024-02-23T07:37:39;6.70;99.90
2389;DHT22;1205;47.984;7.668;2024-02-23T07:40:05;6.70;99.90
2389;DHT22;1205;47.984;7.668;2024-02-23T07:42:34;6.70;99.90
2389;DHT22;1205;47.984;7.668;2024-02-23T07:45:03;6.70;99.90
2389;DHT22;1205;47.984;7.668;2024-02-23T07:47:30;6.60;99.90
2389;DHT22;1205;47.984;7.668;2024-02-23T07:49:56;6.50;99.90
2389;DHT22;1205;47.984;7.668;2024-02-23T07:52:21;6.50;99.90
2389;DHT22;1205;47.984;7.668;2024-02-23T07:54:49;6.40;99.90
2389;DHT22;1205;47.984;7.668;2024-02-23T07:57:17;6.40;99.90
2389;DHT22;1205;47.984;7.668;2024-02-23T07:59:43;6.40;99.90
2389;DHT22;1205;47.984;7.668;2024-02-23T08:02:08;6.40;99.90
2389;DHT22;1205;47.984;7.668;2024-02-23T08:04:34;6.50;99.90
2389;DHT22;1205;47.984;7.668;2024-02-23T08:06:59;6.50;99.90
2389;DHT22;1205;47.984;7.668;2024-02-23T08:09:25;6.60;99.90
2389;DHT22;1205;47.984;7.668;2024-02-23T08:11:51;6.60;99.90
2389;DHT22;1205;47.984;7.668;2024-02-23T08:14:16;7.40;99.90
2389;DHT22;1205;47.984;7.668;2024-02-23T08:16:42;7.90;99.90
2389;DHT22;1205;47.984;7.668;2024-02-23T08:19:07;7.60;99.90
2389;DHT22;1205;47.984;7.668;2024-02-23T08:21:33;7.50;99.90
2389;DHT22;1205;47.984;7.668;2024-02-23T08:23:59;7.40;99.90
2389;DHT22;1205;47.984;7.668;2024-02-23T08:26:24;7.40;99.90
2389;DHT22;1205;47.984;7.668;2024-02-23T08:28:50;7.30;99.90
2389;DHT22;1205;47.984;7.668;2024-02-23T08:31:15;7.30;99.90
2389;DHT22;1205;47.984;7.668;2024-02-23T08:33:42;7.30;99.90
2389;DHT22;1205;47.984;7.668;2024-02-23T08:36:08;7.40;99.90
2389;DHT22;1205;47.984;7.668;2024-02-23T08:38:33;7.40;99.90
2389;DHT22;1205;47.984;7.668;2024-02-23T08:40:59;7.40;99.90
2389;DHT22;1205;47.984;7.668;2024-02-23T08:43:24;7.40;99.90
2389;DHT22;1205;47.984;7.668;2024-02-23T08:45:50;7.40;99.90
2389;DHT22;1205;47.984;7.668;2024-02-23T08:48:16;7.50;99.90
2389;DHT22;1205;47.984;7.668;2024-02-23T08:50:42;7.50;99.90
2389;DHT22;1205;47.984;7.668;2024-02-23T08:53:07;7.60;99.90
2389;DHT22;1205;47.984;7.668;2024-02-23T08:55:33;7.70;99.90
2389;DHT22;1205;47.984;7.668;2024-02-23T08:57:59;7.80;99.90
2389;DHT22;1205;47.984;7.668;2024-02-23T09:00:24;7.90;99.90
2389;DHT22;1205;47.984;7.668;2024-02-23T09:02:50;7.90;99.90
2389;DHT22;1205;47.984;7.668;2024-02-23T09:05:16;8.10;99.90
2389;DHT22;1205;47.984;7.668;2024-02-23T09:07:41;8.20;99.90
2389;DHT22;1205;47.984;7.668;2024-02-23T09:10:07;8.30;99.90
2389;DHT22;1205;47.984;7.668;2024-02-23T09:12:33;8.30;99.90
2389;DHT22;1205;47.984;7.668;2024-02-23T09:14:58;8.30;99.90
2389;DHT22;1205;47.984;7.668;2024-02-23T09:17:24;8.30;99.90
2389;DHT22;1205;47.984;7.668;2024-02-23T09:19:51;8.30;99.90
2389;DHT22;1205;47.984;7.668;2024-02-23T09:22:16;8.40;99.90
2389;DHT22;1205;47.984;7.668;2024-02-23T09:24:42;8.20;99.90
2389;DHT22;1205;47.984;7.668;2024-02-23T09:27:08;8.30;99.90
2389;DHT22;1205;47.984;7.668;2024-02-23T09:29:34;8.30;99.90
2389;DHT22;1205;47.984;7.668;2024-02-23T09:32:00;8.30;99.90
2389;DHT22;1205;47.984;7.668;2024-02-23T09:34:26;8.40;99.90
2389;DHT22;1205;47.984;7.668;2024-02-23T09:36:51;8.30;99.90
2389;DHT22;1205;47.984;7.668;2024-02-23T09:39:17;8.40;99.90
2389;DHT22;1205;47.984;7.668;2024-02-23T09:41:43;8.30;99.90
2389;DHT22;1205;47.984;7.668;2024-02-23T09:44:09;8.20;99.90
2389;DHT22;1205;47.984;7.668;2024-02-23T09:46:36;8.20;99.90
2389;DHT22;1205;47.984;7.668;2024-02-23T09:49:02;8.30;99.90
2389;DHT22;1205;47.984;7.668;2024-02-23T09:51:29;8.40;99.90
2389;DHT22;1205;47.984;7.668;2024-02-23T09:53:55;8.60;99.90
2389;DHT22;1205;47.984;7.668;2024-02-23T09:56:26;8.60;99.90
2389;DHT22;1205;47.984;7.668;2024-02-23T09:58:53;8.80;99.90
2389;DHT22;1205;47.984;7.668;2024-02-23T10:01:25;8.80;99.90
2389;DHT22;1205;47.984;7.668;2024-02-23T10:03:54;8.90;99.90
2389;DHT22;1205;47.984;7.668;2024-02-23T10:06:21;9.10;99.90
2389;DHT22;1205;47.984;7.668;2024-02-23T10:08:47;9.10;99.90
2389;DHT22;1205;47.984;7.668;2024-02-23T10:11:12;9.20;99.90
2389;DHT22;1205;47.984;7.668;2024-02-23T10:13:38;9.20;99.90
2389;DHT22;1205;47.984;7.668;2024-02-23T10:16:03;9.10;99.90
2389;DHT22;1205;47.984;7.668;2024-02-23T10:18:30;9.20;99.90
2389;DHT22;1205;47.984;7.668;2024-02-23T10:20:56;9.20;99.90
2389;DHT22;1205;47.984;7.668;2024-02-23T10:23:23;9.20;99.90
2389;DHT22;1205;47.984;7.668;2024-02-23T10:25:48;9.30;99.60
2389;DHT22;1205;47.984;7.668;2024-02-23T10:28:14;9.50;99.90
2389;DHT22;1205;47.984;7.668;2024-02-23T10:30:39;9.50;99.60
2389;DHT22;1205;47.984;7.668;2024-02-23T10:33:05;9.70;99.90
2389;DHT22;1205;47.984;7.668;2024-02-23T10:35:32;9.60;98.70
2389;DHT22;1205;47.984;7.668;2024-02-23T10:38:01;9.50;98.80
2389;DHT22;1205;47.984;7.668;2024-02-23T10:40:30;9.50;98.80
2389;DHT22;1205;47.984;7.668;2024-02-23T10:42:58;9.60;99.60
2389;DHT22;1205;47.984;7.668;2024-02-23T10:45:28;9.50;98.80
2389;DHT22;1205;47.984;7.668;2024-02-23T10:47:55;9.20;98.20
2389;DHT22;1205;47.984;7.668;2024-02-23T10:50:22;9.00;98.60
2389;DHT22;1205;47.984;7.668;2024-02-23T10:52:49;8.90;98.50
2389;DHT22;1205;47.984;7.668;2024-02-23T10:55:15;9.10;99.70
2389;DHT22;1205;47.984;7.668;2024-02-23T10:57:42;9.20;99.20
2389;DHT22;1205;47.984;7.668;2024-02-23T11:00:08;9.20;99.90
2389;DHT22;1205;47.984;7.668;2024-02-23T11:02:46;9.20;99.80
2389;DHT22;1205;47.984;7.668;2024-02-23T11:05:14;9.10;99.70
2389;DHT22;1205;47.984;7.668;2024-02-23T11:07:40;9.10;99.40
2389;DHT22;1205;47.984;7.668;2024-02-23T11:10:06;9.20;99.10
2389;DHT22;1205;47.984;7.668;2024-02-23T11:12:33;9.30;99.40
2389;DHT22;1205;47.984;7.668;2024-02-23T11:15:00;9.50;99.10
2389;DHT22;1205;47.984;7.668;2024-02-23T11:17:30;9.70;99.30
2389;DHT22;1205;47.984;7.668;2024-02-23T11:19:56;9.90;99.90
2389;DHT22;1205;47.984;7.668;2024-02-23T11:22:31;10.20;99.50
2389;DHT22;1205;47.984;7.668;2024-02-23T11:25:06;10.40;99.30
2389;DHT22;1205;47.984;7.668;2024-02-23T11:27:34;10.60;97.70
2389;DHT22;1205;47.984;7.668;2024-02-23T11:30:03;10.40;98.40
2389;DHT22;1205;47.984;7.668;2024-02-23T11:32:41;10.50;98.10
2389;DHT22;1205;47.984;7.668;2024-02-23T11:35:08;10.20;98.00
2389;DHT22;1205;47.984;7.668;2024-02-23T11:37:49;10.20;98.30
2389;DHT22;1205;47.984;7.668;2024-02-23T11:40:22;10.30;98.50
2389;DHT22;1205;47.984;7.668;2024-02-23T11:42:48;10.20;98.50
2389;DHT22;1205;47.984;7.668;2024-02-23T11:45:13;10.10;99.10
2389;DHT22;1205;47.984;7.668;2024-02-23T11:47:39;9.70;99.50
2389;DHT22;1205;47.984;7.668;2024-02-23T11:50:11;9.60;99.70
2389;DHT22;1205;47.984;7.668;2024-02-23T11:52:40;9.50;99.90
2389;DHT22;1205;47.984;7.668;2024-02-23T11:55:06;9.60;99.90
2389;DHT22;1205;47.984;7.668;2024-02-23T11:57:34;9.70;99.90
2389;DHT22;1205;47.984;7.668;2024-02-23T12:00:02;9.90;99.90
2389;DHT22;1205;47.984;7.668;2024-02-23T12:02:28;9.90;99.30
2389;DHT22;1205;47.984;7.668;2024-02-23T12:04:53;10.20;99.70
2389;DHT22;1205;47.984;7.668;2024-02-23T12:07:19;10.20;99.90
2389;DHT22;1205;47.984;7.668;2024-02-23T12:09:47;10.20;99.80
2389;DHT22;1205;47.984;7.668;2024-02-23T12:12:13;10.10;98.20
2389;DHT22;1205;47.984;7.668;2024-02-23T12:14:40;10.10;99.50
2389;DHT22;1205;47.984;7.668;2024-02-23T12:17:08;10.10;98.80
2389;DHT22;1205;47.984;7.668;2024-02-23T12:19:40;10.10;98.10
2389;DHT22;1205;47.984;7.668;2024-02-23T12:22:06;10.30;98.40
2389;DHT22;1205;47.984;7.668;2024-02-23T12:24:32;10.20;97.20
2389;DHT22;1205;47.984;7.668;2024-02-23T12:26:57;10.10;97.90
2389;DHT22;1205;47.984;7.668;2024-02-23T12:29:24;10.70;99.90
2389;DHT22;1205;47.984;7.668;2024-02-23T12:31:49;10.60;97.80
2389;DHT22;1205;47.984;7.668;2024-02-23T12:34:15;10.50;97.80
2389;DHT22;1205;47.984;7.668;2024-02-23T12:36:41;10.40;97.90
2389;DHT22;1205;47.984;7.668;2024-02-23T12:39:06;10.60;97.80
2389;DHT22;1205;47.984;7.668;2024-02-23T12:41:32;10.50;98.00
2389;DHT22;1205;47.984;7.668;2024-02-23T12:43:58;10.20;97.20
2389;DHT22;1205;47.984;7.668;2024-02-23T12:46:23;10.10;97.00
2389;DHT22;1205;47.984;7.668;2024-02-23T12:48:50;10.20;97.10
2389;DHT22;1205;47.984;7.668;2024-02-23T12:51:15;10.50;98.40
2389;DHT22;1205;47.984;7.668;2024-02-23T12:53:42;10.70;97.80
2389;DHT22;1205;47.984;7.668;2024-02-23T12:56:10;10.90;97.70
2389;DHT22;1205;47.984;7.668;2024-02-23T12:58:37;10.90;96.30
2389;DHT22;1205;47.984;7.668;2024-02-23T13:01:03;10.70;96.10
2389;DHT22;1205;47.984;7.668;2024-02-23T13:03:29;10.90;96.50
2389;DHT22;1205;47.984;7.668;2024-02-23T13:05:56;10.70;95.70
2389;DHT22;1205;47.984;7.668;2024-02-23T13:08:22;10.90;96.30
2389;DHT22;1205;47.984;7.668;2024-02-23T13:10:49;11.00;96.40
2389;DHT22;1205;47.984;7.668;2024-02-23T13:13:14;11.10;96.00
2389;DHT22;1205;47.984;7.668;2024-02-23T13:15:41;11.00;95.50
2389;DHT22;1205;47.984;7.668;2024-02-23T13:18:07;11.30;96.70
2389;DHT22;1205;47.984;7.668;2024-02-23T13:20:32;11.50;95.40
2389;DHT22;1205;47.984;7.668;2024-02-23T13:22:58;11.40;95.30
2389;DHT22;1205;47.984;7.668;2024-02-23T13:25:24;11.30;95.20
2389;DHT22;1205;47.984;7.668;2024-02-23T13:27:49;11.30;95.20
2389;DHT22;1205;47.984;7.668;2024-02-23T13:30:15;11.40;95.50
2389;DHT22;1205;47.984;7.668;2024-02-23T13:32:41;11.40;94.60
2389;DHT22;1205;47.984;7.668;2024-02-23T13:35:06;11.40;94.70
2389;DHT22;1205;47.984;7.668;2024-02-23T13:37:34;11.50;96.20
2389;DHT22;1205;47.984;7.668;2024-02-23T13:40:00;11.40;95.10
2389;DHT22;1205;47.984;7.668;2024-02-23T13:42:25;11.50;96.00
2389;DHT22;1205;47.984;7.668;2024-02-23T13:44:51;11.60;95.30
2389;DHT22;1205;47.984;7.668;2024-02-23T13:47:16;11.60;95.30
2389;DHT22;1205;47.984;7.668;2024-02-23T13:49:42;11.60;94.80
2389;DHT22;1205;47.984;7.668;2024-02-23T13:52:08;11.70;95.60
2389;DHT22;1205;47.984;7.668;2024-02-23T13:54:33;11.70;94.70
2389;DHT22;1205;47.984;7.668;2024-02-23T13:56:59;11.50;95.00
2389;DHT22;1205;47.984;7.668;2024-02-23T13:59:25;11.30;94.30
2389;DHT22;1205;47.984;7.668;2024-02-23T14:01:50;11.50;95.00
2389;DHT22;1205;47.984;7.668;2024-02-23T14:04:16;11.70;94.70
2389;DHT22;1205;47.984;7.668;2024-02-23T14:06:42;11.40;93.20
2389;DHT22;1205;47.984;7.668;2024-02-23T14:09:09;11.50;93.80
2389;DHT22;1205;47.984;7.668;2024-02-23T14:11:34;11.60;93.60
2389;DHT22;1205;47.984;7.668;2024-02-23T14:14:00;11.50;93.10
2389;DHT22;1205;47.984;7.668;2024-02-23T14:16:27;11.40;93.10
2389;DHT22;1205;47.984;7.668;2024-02-23T14:18:53;11.40;93.30
2389;DHT22;1205;47.984;7.668;2024-02-23T14:21:18;11.40;93.30
2389;DHT22;1205;47.984;7.668;2024-02-23T14:23:44;11.50;93.70
2389;DHT22;1205;47.984;7.668;2024-02-23T14:26:09;11.70;94.20
2389;DHT22;1205;47.984;7.668;2024-02-23T14:28:35;11.80;93.00
2389;DHT22;1205;47.984;7.668;2024-02-23T14:31:01;11.80;92.80
2389;DHT22;1205;47.984;7.668;2024-02-23T14:33:26;11.80;93.40
2389;DHT22;1205;47.984;7.668;2024-02-23T14:35:52;11.80;92.70
2389;DHT22;1205;47.984;7.668;2024-02-23T14:38:18;11.70;92.90
2389;DHT22;1205;47.984;7.668;2024-02-23T14:40:43;11.40;91.90
2389;DHT22;1205;47.984;7.668;2024-02-23T14:43:09;11.30;92.80
2389;DHT22;1205;47.984;7.668;2024-02-23T14:45:35;11.20;92.60
2389;DHT22;1205;47.984;7.668;2024-02-23T14:48:01;11.10;92.40
2389;DHT22;1205;47.984;7.668;2024-02-23T14:50:27;11.20;92.60
2389;DHT22;1205;47.984;7.668;2024-02-23T14:52:52;11.30;92.80
2389;DHT22;1205;47.984;7.668;2024-02-23T14:55:19;11.50;93.30
2389;DHT22;1205;47.984;7.668;2024-02-23T14:57:45;11.40;91.70
2389;DHT22;1205;47.984;7.668;2024-02-23T15:00:11;11.40;92.00
2389;DHT22;1205;47.984;7.668;2024-02-23T15:02:38;11.40;93.00
2389;DHT22;1205;47.984;7.668;2024-02-23T15:05:05;11.20;91.10
2389;DHT22;1205;47.984;7.668;2024-02-23T15:07:31;11.10;91.80
2389;DHT22;1205;47.984;7.668;2024-02-23T15:09:57;11.10;91.80
2389;DHT22;1205;47.984;7.668;2024-02-23T15:12:23;11.20;92.70
2389;DHT22;1205;47.984;7.668;2024-02-23T15:14:50;11.20;91.70
2389;DHT22;1205;47.984;7.668;2024-02-23T15:17:16;11.40;92.80
2389;DHT22;1205;47.984;7.668;2024-02-23T15:19:42;11.50;92.70
2389;DHT22;1205;47.984;7.668;2024-02-23T15:22:08;11.60;92.50
2389;DHT22;1205;47.984;7.668;2024-02-23T15:24:39;11.60;92.30
2389;DHT22;1205;47.984;7.668;2024-02-23T15:27:05;11.60;92.90
2389;DHT22;1205;47.984;7.668;2024-02-23T15:29:30;11.60;92.50
2389;DHT22;1205;47.984;7.668;2024-02-23T15:31:56;11.20;92.40
2389;DHT22;1205;47.984;7.668;2024-02-23T15:34:22;11.20;92.50
2389;DHT22;1205;47.984;7.668;2024-02-23T15:36:47;11.10;92.30
2389;DHT22;1205;47.984;7.668;2024-02-23T15:39:13;11.00;92.30
2389;DHT22;1205;47.984;7.668;2024-02-23T15:41:39;11.00;93.00
2389;DHT22;1205;47.984;7.668;2024-02-23T15:44:05;11.00;92.30
2389;DHT22;1205;47.984;7.668;2024-02-23T15:46:44;10.90;92.20
2389;DHT22;1205;47.984;7.668;2024-02-23T15:49:22;10.80;93.00
2389;DHT22;1205;47.984;7.668;2024-02-23T15:51:53;10.70;92.50
2389;DHT22;1205;47.984;7.668;2024-02-23T15:54:39;10.80;92.80
2389;DHT22;1205;47.984;7.668;2024-02-23T15:57:44;10.90;92.60
2389;DHT22;1205;47.984;7.668;2024-02-23T16:00:42;10.90;92.20
2389;DHT22;1205;47.984;7.668;2024-02-23T16:06:25;11.00;93.40
2389;DHT22;1205;47.984;7.668;2024-02-23T16:12:01;10.80;93.70
2389;DHT22;1205;47.984;7.668;2024-02-23T16:18:12;10.70;93.70